sensor_id;sensor_type;location;lat;lon;timestamp;P1;durP1;ratioP1;P2;durP2;ratioP2
22026;SDS011;11177;50.966;10.070;2023-02-16T00:00:31;31.40;;;14.63;;
22026;SDS011;11177;50.966;10.070;2023-02-16T00:02:58;28.15;;;13.77;;
22026;SDS011;11177;50.966;10.070;2023-02-16T00:05:29;28.42;;;14.05;;
22026;SDS011;11177;50.966;10.070;2023-02-16T00:07:57;30.80;;;13.82;;
22026;SDS011;11177;50.966;10.070;2023-02-16T00:10:25;30.55;;;14.20;;
22026;SDS011;11177;50.966;10.070;2023-02-16T00:12:54;29.75;;;14.07;;
22026;SDS011;11177;50.966;10.070;2023-02-16T00:15:39;29.45;;;13.55;;
22026;SDS011;11177;50.966;10.070;2023-02-16T00:18:16;32.47;;;14.45;;
22026;SDS011;11177;50.966;10.070;2023-02-16T00:20:44;31.20;;;14.23;;
22026;SDS011;11177;50.966;10.070;2023-02-16T00:23:12;30.55;;;14.70;;
22026;SDS011;11177;50.966;10.070;2023-02-16T00:25:38;31.13;;;13.73;;
22026;SDS011;11177;50.966;10.070;2023-02-16T00:28:12;32.00;;;14.18;;
22026;SDS011;11177;50.966;10.070;2023-02-16T00:30:40;30.35;;;13.27;;
22026;SDS011;11177;50.966;10.070;2023-02-16T00:33:11;35.63;;;14.50;;
22026;SDS011;11177;50.966;10.070;2023-02-16T00:35:40;29.08;;;13.82;;
22026;SDS011;11177;50.966;10.070;2023-02-16T00:38:07;31.40;;;14.30;;
22026;SDS011;11177;50.966;10.070;2023-02-16T00:40:34;30.77;;;14.73;;
22026;SDS011;11177;50.966;10.070;2023-02-16T00:43:01;31.48;;;14.65;;
22026;SDS011;11177;50.966;10.070;2023-02-16T00:45:28;30.83;;;14.80;;
22026;SDS011;11177;50.966;10.070;2023-02-16T00:47:56;31.65;;;14.35;;
22026;SDS011;11177;50.966;10.070;2023-02-16T00:50:27;29.88;;;14.85;;
22026;SDS011;11177;50.966;10.070;2023-02-16T00:52:55;30.73;;;14.73;;
22026;SDS011;11177;50.966;10.070;2023-02-16T00:55:26;29.25;;;13.40;;
22026;SDS011;11177;50.966;10.070;2023-02-16T00:58:03;31.05;;;14.43;;
22026;SDS011;11177;50.966;10.070;2023-02-16T01:00:53;33.25;;;14.68;;
22026;SDS011;11177;50.966;10.070;2023-02-16T01:03:23;29.90;;;13.98;;
22026;SDS011;11177;50.966;10.070;2023-02-16T01:05:51;31.20;;;14.45;;
22026;SDS011;11177;50.966;10.070;2023-02-16T01:08:38;30.08;;;14.02;;
22026;SDS011;11177;50.966;10.070;2023-02-16T01:11:24;29.52;;;14.05;;
22026;SDS011;11177;50.966;10.070;2023-02-16T01:13:52;29.13;;;13.68;;
22026;SDS011;11177;50.966;10.070;2023-02-16T01:16:21;32.03;;;14.60;;
22026;SDS011;11177;50.966;10.070;2023-02-16T01:18:52;31.75;;;14.60;;
22026;SDS011;11177;50.966;10.070;2023-02-16T01:21:19;30.38;;;13.65;;
22026;SDS011;11177;50.966;10.070;2023-02-16T01:23:49;28.67;;;13.55;;
22026;SDS011;11177;50.966;10.070;2023-02-16T01:26:17;29.55;;;13.90;;
22026;SDS011;11177;50.966;10.070;2023-02-16T01:28:44;30.38;;;14.27;;
22026;SDS011;11177;50.966;10.070;2023-02-16T01:31:11;33.60;;;14.38;;
22026;SDS011;11177;50.966;10.070;2023-02-16T01:33:39;33.50;;;15.30;;
22026;SDS011;11177;50.966;10.070;2023-02-16T01:36:30;30.02;;;14.35;;
22026;SDS011;11177;50.966;10.070;2023-02-16T01:38:59;30.48;;;13.90;;
22026;SDS011;11177;50.966;10.070;2023-02-16T01:41:42;35.58;;;15.52;;
22026;SDS011;11177;50.966;10.070;2023-02-16T01:44:15;30.75;;;14.30;;
22026;SDS011;11177;50.966;10.070;2023-02-16T01:46:54;32.35;;;15.05;;
22026;SDS011;11177;50.966;10.070;2023-02-16T01:49:41;29.50;;;14.50;;
22026;SDS011;11177;50.966;10.070;2023-02-16T01:57:46;29.67;;;13.70;;
22026;SDS011;11177;50.966;10.070;2023-02-16T02:03:39;32.80;;;14.80;;
22026;SDS011;11177;50.966;10.070;2023-02-16T02:06:31;29.80;;;13.90;;
22026;SDS011;11177;50.966;10.070;2023-02-16T02:09:01;31.90;;;14.52;;
22026;SDS011;11177;50.966;10.070;2023-02-16T02:11:32;29.67;;;14.02;;
22026;SDS011;11177;50.966;10.070;2023-02-16T02:14:14;30.52;;;14.18;;
22026;SDS011;11177;50.966;10.070;2023-02-16T02:16:56;32.20;;;14.18;;
22026;SDS011;11177;50.966;10.070;2023-02-16T02:19:28;32.20;;;14.30;;
22026;SDS011;11177;50.966;10.070;2023-02-16T02:22:18;33.92;;;15.13;;
22026;SDS011;11177;50.966;10.070;2023-02-16T02:25:39;31.33;;;14.45;;
22026;SDS011;11177;50.966;10.070;2023-02-16T02:28:13;31.13;;;13.93;;
22026;SDS011;11177;50.966;10.070;2023-02-16T02:33:28;29.50;;;12.95;;
22026;SDS011;11177;50.966;10.070;2023-02-16T02:36:48;29.45;;;14.48;;
22026;SDS011;11177;50.966;10.070;2023-02-16T02:39:33;34.00;;;13.93;;
22026;SDS011;11177;50.966;10.070;2023-02-16T02:42:17;32.22;;;14.13;;
22026;SDS011;11177;50.966;10.070;2023-02-16T02:44:48;32.75;;;14.95;;
22026;SDS011;11177;50.966;10.070;2023-02-16T02:47:17;31.70;;;13.57;;
22026;SDS011;11177;50.966;10.070;2023-02-16T02:49:53;31.20;;;14.02;;
22026;SDS011;11177;50.966;10.070;2023-02-16T02:52:20;33.53;;;14.95;;
22026;SDS011;11177;50.966;10.070;2023-02-16T02:54:48;31.85;;;15.05;;
22026;SDS011;11177;50.966;10.070;2023-02-16T02:57:35;33.30;;;14.40;;
22026;SDS011;11177;50.966;10.070;2023-02-16T03:00:28;31.92;;;14.38;;
22026;SDS011;11177;50.966;10.070;2023-02-16T03:03:29;31.67;;;14.07;;
22026;SDS011;11177;50.966;10.070;2023-02-16T03:06:00;31.73;;;14.27;;
22026;SDS011;11177;50.966;10.070;2023-02-16T03:08:31;30.77;;;15.13;;
22026;SDS011;11177;50.966;10.070;2023-02-16T03:11:05;32.00;;;15.80;;
22026;SDS011;11177;50.966;10.070;2023-02-16T03:13:54;36.88;;;14.63;;
22026;SDS011;11177;50.966;10.070;2023-02-16T03:16:25;34.83;;;15.10;;
22026;SDS011;11177;50.966;10.070;2023-02-16T03:18:55;32.17;;;14.63;;
22026;SDS011;11177;50.966;10.070;2023-02-16T03:21:41;32.53;;;14.38;;
22026;SDS011;11177;50.966;10.070;2023-02-16T03:24:27;32.80;;;14.70;;
22026;SDS011;11177;50.966;10.070;2023-02-16T03:27:15;33.67;;;15.32;;
22026;SDS011;11177;50.966;10.070;2023-02-16T03:30:03;34.55;;;14.93;;
22026;SDS011;11177;50.966;10.070;2023-02-16T03:32:31;32.22;;;14.32;;
22026;SDS011;11177;50.966;10.070;2023-02-16T03:34:59;31.40;;;14.23;;
22026;SDS011;11177;50.966;10.070;2023-02-16T03:37:26;34.25;;;14.52;;
22026;SDS011;11177;50.966;10.070;2023-02-16T03:39:52;36.60;;;15.25;;
22026;SDS011;11177;50.966;10.070;2023-02-16T03:42:38;33.22;;;15.18;;
22026;SDS011;11177;50.966;10.070;2023-02-16T03:45:05;33.03;;;15.40;;
22026;SDS011;11177;50.966;10.070;2023-02-16T03:47:32;35.25;;;14.88;;
22026;SDS011;11177;50.966;10.070;2023-02-16T03:49:59;34.25;;;14.60;;
22026;SDS011;11177;50.966;10.070;2023-02-16T03:52:26;33.70;;;14.93;;
22026;SDS011;11177;50.966;10.070;2023-02-16T03:54:52;29.85;;;13.73;;
22026;SDS011;11177;50.966;10.070;2023-02-16T03:57:19;31.30;;;14.85;;
22026;SDS011;11177;50.966;10.070;2023-02-16T03:59:46;35.70;;;14.68;;
22026;SDS011;11177;50.966;10.070;2023-02-16T04:02:12;32.78;;;14.48;;
22026;SDS011;11177;50.966;10.070;2023-02-16T04:04:39;32.90;;;14.15;;
22026;SDS011;11177;50.966;10.070;2023-02-16T04:07:06;34.35;;;14.77;;
22026;SDS011;11177;50.966;10.070;2023-02-16T04:09:33;36.83;;;15.50;;
22026;SDS011;11177;50.966;10.070;2023-02-16T04:11:59;31.60;;;14.45;;
22026;SDS011;11177;50.966;10.070;2023-02-16T04:14:45;38.72;;;15.60;;
22026;SDS011;11177;50.966;10.070;2023-02-16T04:17:12;33.38;;;15.90;;
22026;SDS011;11177;50.966;10.070;2023-02-16T04:19:39;37.45;;;15.18;;
22026;SDS011;11177;50.966;10.070;2023-02-16T04:22:06;36.20;;;15.60;;
22026;SDS011;11177;50.966;10.070;2023-02-16T04:24:33;37.35;;;16.25;;
22026;SDS011;11177;50.966;10.070;2023-02-16T04:27:00;34.47;;;15.52;;
22026;SDS011;11177;50.966;10.070;2023-02-16T04:29:26;33.75;;;14.98;;
22026;SDS011;11177;50.966;10.070;2023-02-16T04:31:54;34.95;;;15.68;;
22026;SDS011;11177;50.966;10.070;2023-02-16T04:34:21;35.40;;;16.25;;
22026;SDS011;11177;50.966;10.070;2023-02-16T04:36:48;40.58;;;17.17;;
22026;SDS011;11177;50.966;10.070;2023-02-16T04:39:15;54.55;;;22.15;;
22026;SDS011;11177;50.966;10.070;2023-02-16T04:41:41;86.47;;;31.67;;
22026;SDS011;11177;50.966;10.070;2023-02-16T04:44:08;135.77;;;46.83;;
22026;SDS011;11177;50.966;10.070;2023-02-16T04:46:35;74.97;;;27.05;;
22026;SDS011;11177;50.966;10.070;2023-02-16T04:49:01;64.45;;;23.98;;
22026;SDS011;11177;50.966;10.070;2023-02-16T04:51:28;41.53;;;17.17;;
22026;SDS011;11177;50.966;10.070;2023-02-16T04:53:55;69.10;;;25.95;;
22026;SDS011;11177;50.966;10.070;2023-02-16T04:59:49;38.53;;;16.30;;
22026;SDS011;11177;50.966;10.070;2023-02-16T05:02:16;43.03;;;17.10;;
22026;SDS011;11177;50.966;10.070;2023-02-16T05:04:42;36.03;;;15.32;;
22026;SDS011;11177;50.966;10.070;2023-02-16T05:07:10;32.70;;;14.52;;
22026;SDS011;11177;50.966;10.070;2023-02-16T05:09:36;29.45;;;13.35;;
22026;SDS011;11177;50.966;10.070;2023-02-16T05:12:03;28.60;;;13.75;;
22026;SDS011;11177;50.966;10.070;2023-02-16T05:14:48;33.40;;;14.85;;
22026;SDS011;11177;50.966;10.070;2023-02-16T05:17:24;32.05;;;14.95;;
22026;SDS011;11177;50.966;10.070;2023-02-16T05:19:56;31.45;;;14.00;;
22026;SDS011;11177;50.966;10.070;2023-02-16T05:22:25;34.90;;;15.43;;
22026;SDS011;11177;50.966;10.070;2023-02-16T05:24:54;34.38;;;15.45;;
22026;SDS011;11177;50.966;10.070;2023-02-16T05:27:25;33.30;;;15.07;;
22026;SDS011;11177;50.966;10.070;2023-02-16T05:29:53;32.70;;;15.45;;
22026;SDS011;11177;50.966;10.070;2023-02-16T05:32:20;32.72;;;15.13;;
22026;SDS011;11177;50.966;10.070;2023-02-16T05:34:46;34.40;;;15.70;;
22026;SDS011;11177;50.966;10.070;2023-02-16T05:37:14;33.78;;;15.20;;
22026;SDS011;11177;50.966;10.070;2023-02-16T05:39:41;36.72;;;15.90;;
22026;SDS011;11177;50.966;10.070;2023-02-16T05:42:08;40.13;;;16.40;;
22026;SDS011;11177;50.966;10.070;2023-02-16T05:44:35;38.10;;;16.33;;
22026;SDS011;11177;50.966;10.070;2023-02-16T05:47:02;43.33;;;17.25;;
22026;SDS011;11177;50.966;10.070;2023-02-16T05:49:29;41.08;;;17.33;;
22026;SDS011;11177;50.966;10.070;2023-02-16T05:51:56;38.17;;;16.13;;
22026;SDS011;11177;50.966;10.070;2023-02-16T05:54:23;40.17;;;17.50;;
22026;SDS011;11177;50.966;10.070;2023-02-16T05:56:50;39.15;;;16.55;;
22026;SDS011;11177;50.966;10.070;2023-02-16T05:59:18;41.67;;;17.83;;
22026;SDS011;11177;50.966;10.070;2023-02-16T06:01:45;39.05;;;16.77;;
22026;SDS011;11177;50.966;10.070;2023-02-16T06:04:16;38.08;;;16.45;;
22026;SDS011;11177;50.966;10.070;2023-02-16T06:06:44;41.50;;;17.60;;
22026;SDS011;11177;50.966;10.070;2023-02-16T06:09:11;41.47;;;16.98;;
22026;SDS011;11177;50.966;10.070;2023-02-16T06:11:38;38.35;;;16.90;;
22026;SDS011;11177;50.966;10.070;2023-02-16T06:14:06;34.75;;;15.55;;
22026;SDS011;11177;50.966;10.070;2023-02-16T06:16:35;38.65;;;16.80;;
22026;SDS011;11177;50.966;10.070;2023-02-16T06:19:03;39.95;;;17.88;;
22026;SDS011;11177;50.966;10.070;2023-02-16T06:21:31;38.92;;;17.13;;
22026;SDS011;11177;50.966;10.070;2023-02-16T06:23:58;36.33;;;16.75;;
22026;SDS011;11177;50.966;10.070;2023-02-16T06:26:25;42.13;;;17.95;;
22026;SDS011;11177;50.966;10.070;2023-02-16T06:28:52;40.67;;;16.85;;
22026;SDS011;11177;50.966;10.070;2023-02-16T06:31:19;39.40;;;17.88;;
22026;SDS011;11177;50.966;10.070;2023-02-16T06:33:46;35.28;;;16.65;;
22026;SDS011;11177;50.966;10.070;2023-02-16T06:36:13;41.97;;;18.10;;
22026;SDS011;11177;50.966;10.070;2023-02-16T06:38:40;40.13;;;17.60;;
22026;SDS011;11177;50.966;10.070;2023-02-16T06:41:08;45.97;;;18.20;;
22026;SDS011;11177;50.966;10.070;2023-02-16T06:43:34;39.60;;;17.73;;
22026;SDS011;11177;50.966;10.070;2023-02-16T06:46:01;43.10;;;18.00;;
22026;SDS011;11177;50.966;10.070;2023-02-16T06:48:28;40.47;;;17.58;;
22026;SDS011;11177;50.966;10.070;2023-02-16T06:50:55;42.20;;;17.85;;
22026;SDS011;11177;50.966;10.070;2023-02-16T06:53:22;41.70;;;17.83;;
22026;SDS011;11177;50.966;10.070;2023-02-16T06:55:49;40.22;;;17.13;;
22026;SDS011;11177;50.966;10.070;2023-02-16T06:58:16;42.75;;;18.30;;
22026;SDS011;11177;50.966;10.070;2023-02-16T07:00:43;44.13;;;17.40;;
22026;SDS011;11177;50.966;10.070;2023-02-16T07:03:10;38.05;;;17.85;;
22026;SDS011;11177;50.966;10.070;2023-02-16T07:05:36;37.70;;;17.55;;
22026;SDS011;11177;50.966;10.070;2023-02-16T07:08:03;44.00;;;18.60;;
22026;SDS011;11177;50.966;10.070;2023-02-16T07:10:30;38.22;;;17.35;;
22026;SDS011;11177;50.966;10.070;2023-02-16T07:13:14;36.05;;;17.40;;
22026;SDS011;11177;50.966;10.070;2023-02-16T07:15:41;38.83;;;17.40;;
22026;SDS011;11177;50.966;10.070;2023-02-16T07:18:07;42.63;;;17.25;;
22026;SDS011;11177;50.966;10.070;2023-02-16T07:20:34;39.25;;;17.67;;
22026;SDS011;11177;50.966;10.070;2023-02-16T07:23:01;38.92;;;17.50;;
22026;SDS011;11177;50.966;10.070;2023-02-16T07:25:27;46.08;;;19.83;;
22026;SDS011;11177;50.966;10.070;2023-02-16T07:27:54;44.35;;;18.55;;
22026;SDS011;11177;50.966;10.070;2023-02-16T07:30:21;41.90;;;17.98;;
22026;SDS011;11177;50.966;10.070;2023-02-16T07:32:48;43.50;;;18.63;;
22026;SDS011;11177;50.966;10.070;2023-02-16T07:35:15;52.50;;;23.77;;
22026;SDS011;11177;50.966;10.070;2023-02-16T07:37:41;51.03;;;23.20;;
22026;SDS011;11177;50.966;10.070;2023-02-16T07:40:08;50.35;;;22.33;;
22026;SDS011;11177;50.966;10.070;2023-02-16T07:42:35;47.10;;;21.52;;
22026;SDS011;11177;50.966;10.070;2023-02-16T07:45:02;43.92;;;20.42;;
22026;SDS011;11177;50.966;10.070;2023-02-16T07:47:29;43.90;;;19.45;;
22026;SDS011;11177;50.966;10.070;2023-02-16T07:49:56;46.50;;;19.85;;
22026;SDS011;11177;50.966;10.070;2023-02-16T07:52:23;43.67;;;18.95;;
22026;SDS011;11177;50.966;10.070;2023-02-16T07:54:57;42.28;;;19.13;;
22026;SDS011;11177;50.966;10.070;2023-02-16T07:57:27;46.22;;;20.10;;
22026;SDS011;11177;50.966;10.070;2023-02-16T07:59:54;44.92;;;20.65;;
22026;SDS011;11177;50.966;10.070;2023-02-16T08:02:21;44.70;;;20.35;;
22026;SDS011;11177;50.966;10.070;2023-02-16T08:04:49;44.28;;;19.55;;
22026;SDS011;11177;50.966;10.070;2023-02-16T08:07:18;45.30;;;20.02;;
22026;SDS011;11177;50.966;10.070;2023-02-16T08:09:45;44.35;;;20.58;;
22026;SDS011;11177;50.966;10.070;2023-02-16T08:12:12;47.38;;;21.48;;
22026;SDS011;11177;50.966;10.070;2023-02-16T08:14:40;49.30;;;21.15;;
22026;SDS011;11177;50.966;10.070;2023-02-16T08:17:07;48.80;;;22.02;;
22026;SDS011;11177;50.966;10.070;2023-02-16T08:19:34;47.67;;;21.90;;
22026;SDS011;11177;50.966;10.070;2023-02-16T08:22:02;49.13;;;21.83;;
22026;SDS011;11177;50.966;10.070;2023-02-16T08:24:30;44.13;;;20.85;;
22026;SDS011;11177;50.966;10.070;2023-02-16T08:26:57;43.40;;;20.20;;
22026;SDS011;11177;50.966;10.070;2023-02-16T08:29:24;47.42;;;22.25;;
22026;SDS011;11177;50.966;10.070;2023-02-16T08:31:51;42.72;;;20.45;;
22026;SDS011;11177;50.966;10.070;2023-02-16T08:34:19;44.95;;;21.00;;
22026;SDS011;11177;50.966;10.070;2023-02-16T08:36:46;39.88;;;20.02;;
22026;SDS011;11177;50.966;10.070;2023-02-16T08:39:14;45.38;;;20.83;;
22026;SDS011;11177;50.966;10.070;2023-02-16T08:41:43;41.42;;;19.05;;
22026;SDS011;11177;50.966;10.070;2023-02-16T08:44:11;39.05;;;19.40;;
22026;SDS011;11177;50.966;10.070;2023-02-16T08:46:39;38.35;;;19.45;;
22026;SDS011;11177;50.966;10.070;2023-02-16T08:49:08;40.83;;;18.10;;
22026;SDS011;11177;50.966;10.070;2023-02-16T08:51:36;37.88;;;17.75;;
22026;SDS011;11177;50.966;10.070;2023-02-16T08:54:06;39.15;;;18.35;;
22026;SDS011;11177;50.966;10.070;2023-02-16T08:56:37;36.83;;;17.88;;
22026;SDS011;11177;50.966;10.070;2023-02-16T08:59:05;35.53;;;17.27;;
22026;SDS011;11177;50.966;10.070;2023-02-16T09:01:31;37.53;;;18.25;;
22026;SDS011;11177;50.966;10.070;2023-02-16T09:03:58;36.72;;;17.52;;
22026;SDS011;11177;50.966;10.070;2023-02-16T09:06:25;35.92;;;17.50;;
22026;SDS011;11177;50.966;10.070;2023-02-16T09:08:52;34.78;;;16.77;;
22026;SDS011;11177;50.966;10.070;2023-02-16T09:11:21;32.45;;;16.77;;
22026;SDS011;11177;50.966;10.070;2023-02-16T09:13:49;35.65;;;17.60;;
22026;SDS011;11177;50.966;10.070;2023-02-16T09:16:17;33.05;;;16.58;;
22026;SDS011;11177;50.966;10.070;2023-02-16T09:18:49;36.08;;;17.60;;
22026;SDS011;11177;50.966;10.070;2023-02-16T09:21:18;38.92;;;18.27;;
22026;SDS011;11177;50.966;10.070;2023-02-16T09:23:47;33.25;;;17.75;;
22026;SDS011;11177;50.966;10.070;2023-02-16T09:26:19;33.10;;;17.35;;
22026;SDS011;11177;50.966;10.070;2023-02-16T09:28:48;33.15;;;17.52;;
22026;SDS011;11177;50.966;10.070;2023-02-16T09:31:20;31.27;;;16.13;;
22026;SDS011;11177;50.966;10.070;2023-02-16T09:33:57;32.97;;;17.80;;
22026;SDS011;11177;50.966;10.070;2023-02-16T09:36:26;32.17;;;16.95;;
22026;SDS011;11177;50.966;10.070;2023-02-16T09:38:54;33.85;;;17.55;;
22026;SDS011;11177;50.966;10.070;2023-02-16T09:41:49;34.17;;;16.55;;
22026;SDS011;11177;50.966;10.070;2023-02-16T09:45:07;33.17;;;16.58;;
22026;SDS011;11177;50.966;10.070;2023-02-16T09:50:15;31.15;;;16.75;;
22026;SDS011;11177;50.966;10.070;2023-02-16T09:53:07;33.00;;;16.95;;
22026;SDS011;11177;50.966;10.070;2023-02-16T09:58:36;30.58;;;15.70;;
22026;SDS011;11177;50.966;10.070;2023-02-16T10:07:43;30.25;;;16.75;;
22026;SDS011;11177;50.966;10.070;2023-02-16T10:10:49;34.38;;;17.63;;
22026;SDS011;11177;50.966;10.070;2023-02-16T10:13:25;29.88;;;16.60;;
22026;SDS011;11177;50.966;10.070;2023-02-16T10:16:13;31.40;;;16.60;;
22026;SDS011;11177;50.966;10.070;2023-02-16T10:18:44;28.45;;;15.57;;
22026;SDS011;11177;50.966;10.070;2023-02-16T10:21:16;29.35;;;16.27;;
22026;SDS011;11177;50.966;10.070;2023-02-16T10:26:38;61.45;;;32.47;;
22026;SDS011;11177;50.966;10.070;2023-02-16T10:29:15;42.42;;;23.88;;
22026;SDS011;11177;50.966;10.070;2023-02-16T10:34:48;28.05;;;16.55;;
22026;SDS011;11177;50.966;10.070;2023-02-16T10:40:28;28.90;;;16.00;;
22026;SDS011;11177;50.966;10.070;2023-02-16T10:43:19;28.55;;;16.30;;
22026;SDS011;11177;50.966;10.070;2023-02-16T10:45:52;29.27;;;16.60;;
22026;SDS011;11177;50.966;10.070;2023-02-16T10:48:21;27.58;;;15.73;;
22026;SDS011;11177;50.966;10.070;2023-02-16T10:50:57;27.83;;;16.63;;
22026;SDS011;11177;50.966;10.070;2023-02-16T10:53:47;29.38;;;16.65;;
22026;SDS011;11177;50.966;10.070;2023-02-16T10:59:22;29.00;;;16.73;;
22026;SDS011;11177;50.966;10.070;2023-02-16T11:01:57;29.85;;;16.33;;
22026;SDS011;11177;50.966;10.070;2023-02-16T11:04:33;31.33;;;17.08;;
22026;SDS011;11177;50.966;10.070;2023-02-16T11:07:11;27.42;;;15.43;;
22026;SDS011;11177;50.966;10.070;2023-02-16T11:09:40;27.42;;;16.45;;
22026;SDS011;11177;50.966;10.070;2023-02-16T11:12:22;26.15;;;15.77;;
22026;SDS011;11177;50.966;10.070;2023-02-16T11:14:53;29.35;;;16.17;;
22026;SDS011;11177;50.966;10.070;2023-02-16T11:17:22;28.25;;;17.10;;
22026;SDS011;11177;50.966;10.070;2023-02-16T11:19:51;29.23;;;16.65;;
22026;SDS011;11177;50.966;10.070;2023-02-16T11:22:27;30.08;;;17.60;;
22026;SDS011;11177;50.966;10.070;2023-02-16T11:25:06;31.10;;;17.52;;
22026;SDS011;11177;50.966;10.070;2023-02-16T11:27:56;30.63;;;17.30;;
22026;SDS011;11177;50.966;10.070;2023-02-16T11:30:27;30.55;;;17.17;;
22026;SDS011;11177;50.966;10.070;2023-02-16T11:33:19;29.38;;;17.00;;
22026;SDS011;11177;50.966;10.070;2023-02-16T11:35:48;28.30;;;16.92;;
22026;SDS011;11177;50.966;10.070;2023-02-16T11:38:29;27.90;;;16.15;;
22026;SDS011;11177;50.966;10.070;2023-02-16T11:40:58;29.50;;;16.55;;
22026;SDS011;11177;50.966;10.070;2023-02-16T11:43:28;32.85;;;17.35;;
22026;SDS011;11177;50.966;10.070;2023-02-16T11:45:58;28.10;;;16.17;;
22026;SDS011;11177;50.966;10.070;2023-02-16T11:48:30;29.13;;;17.58;;
22026;SDS011;11177;50.966;10.070;2023-02-16T11:50:59;30.13;;;16.98;;
22026;SDS011;11177;50.966;10.070;2023-02-16T11:53:30;31.42;;;17.35;;
22026;SDS011;11177;50.966;10.070;2023-02-16T11:59:02;30.00;;;17.05;;
22026;SDS011;11177;50.966;10.070;2023-02-16T12:04:56;30.08;;;17.13;;
22026;SDS011;11177;50.966;10.070;2023-02-16T12:14:09;29.90;;;17.80;;
22026;SDS011;11177;50.966;10.070;2023-02-16T12:17:03;26.98;;;15.93;;
22026;SDS011;11177;50.966;10.070;2023-02-16T12:19:39;31.63;;;17.10;;
22026;SDS011;11177;50.966;10.070;2023-02-16T12:22:21;34.00;;;18.05;;
22026;SDS011;11177;50.966;10.070;2023-02-16T12:24:57;27.90;;;16.73;;
22026;SDS011;11177;50.966;10.070;2023-02-16T12:27:35;29.35;;;17.60;;
22026;SDS011;11177;50.966;10.070;2023-02-16T12:30:18;29.83;;;17.25;;
22026;SDS011;11177;50.966;10.070;2023-02-16T12:33:28;28.67;;;16.75;;
22026;SDS011;11177;50.966;10.070;2023-02-16T12:38:39;28.65;;;17.05;;
22026;SDS011;11177;50.966;10.070;2023-02-16T12:41:47;29.67;;;17.98;;
22026;SDS011;11177;50.966;10.070;2023-02-16T12:44:21;28.73;;;16.60;;
22026;SDS011;11177;50.966;10.070;2023-02-16T12:46:56;28.42;;;16.38;;
22026;SDS011;11177;50.966;10.070;2023-02-16T12:50:04;29.83;;;16.85;;
22026;SDS011;11177;50.966;10.070;2023-02-16T12:52:47;30.00;;;16.48;;
22026;SDS011;11177;50.966;10.070;2023-02-16T12:55:17;26.95;;;16.33;;
22026;SDS011;11177;50.966;10.070;2023-02-16T12:58:09;30.30;;;16.98;;
22026;SDS011;11177;50.966;10.070;2023-02-16T13:00:43;28.60;;;16.25;;
22026;SDS011;11177;50.966;10.070;2023-02-16T13:09:23;29.00;;;17.43;;
22026;SDS011;11177;50.966;10.070;2023-02-16T13:11:58;29.33;;;17.20;;
22026;SDS011;11177;50.966;10.070;2023-02-16T13:14:32;28.65;;;16.48;;
22026;SDS011;11177;50.966;10.070;2023-02-16T13:17:02;28.73;;;17.10;;
22026;SDS011;11177;50.966;10.070;2023-02-16T13:19:34;29.73;;;17.05;;
22026;SDS011;11177;50.966;10.070;2023-02-16T13:25:32;26.42;;;15.80;;
22026;SDS011;11177;50.966;10.070;2023-02-16T13:28:29;29.58;;;17.20;;
22026;SDS011;11177;50.966;10.070;2023-02-16T13:37:04;29.25;;;16.58;;
22026;SDS011;11177;50.966;10.070;2023-02-16T13:39:50;30.58;;;17.17;;
22026;SDS011;11177;50.966;10.070;2023-02-16T13:45:46;30.10;;;17.08;;
22026;SDS011;11177;50.966;10.070;2023-02-16T13:48:30;30.20;;;17.25;;
22026;SDS011;11177;50.966;10.070;2023-02-16T13:51:12;29.23;;;17.25;;
22026;SDS011;11177;50.966;10.070;2023-02-16T13:53:42;29.80;;;17.00;;
22026;SDS011;11177;50.966;10.070;2023-02-16T13:56:33;30.33;;;17.52;;
22026;SDS011;11177;50.966;10.070;2023-02-16T14:02:03;30.90;;;16.27;;
22026;SDS011;11177;50.966;10.070;2023-02-16T14:07:33;26.90;;;16.23;;
22026;SDS011;11177;50.966;10.070;2023-02-16T14:10:03;31.45;;;17.02;;
22026;SDS011;11177;50.966;10.070;2023-02-16T14:12:30;32.53;;;17.55;;
22026;SDS011;11177;50.966;10.070;2023-02-16T14:15:04;30.38;;;17.23;;
22026;SDS011;11177;50.966;10.070;2023-02-16T14:17:42;30.63;;;17.45;;
22026;SDS011;11177;50.966;10.070;2023-02-16T14:22:59;26.08;;;16.20;;
22026;SDS011;11177;50.966;10.070;2023-02-16T14:25:30;25.92;;;15.57;;
22026;SDS011;11177;50.966;10.070;2023-02-16T14:28:01;29.05;;;17.10;;
22026;SDS011;11177;50.966;10.070;2023-02-16T14:30:55;26.63;;;16.02;;
22026;SDS011;11177;50.966;10.070;2023-02-16T14:33:38;31.67;;;17.15;;
22026;SDS011;11177;50.966;10.070;2023-02-16T14:36:20;29.88;;;16.95;;
22026;SDS011;11177;50.966;10.070;2023-02-16T14:38:51;29.50;;;16.08;;
22026;SDS011;11177;50.966;10.070;2023-02-16T14:44:22;27.92;;;16.88;;
22026;SDS011;11177;50.966;10.070;2023-02-16T14:47:16;26.45;;;15.13;;
22026;SDS011;11177;50.966;10.070;2023-02-16T14:50:06;27.85;;;16.10;;
22026;SDS011;11177;50.966;10.070;2023-02-16T14:55:50;28.73;;;16.35;;
22026;SDS011;11177;50.966;10.070;2023-02-16T14:58:30;27.80;;;15.88;;
22026;SDS011;11177;50.966;10.070;2023-02-16T15:01:04;29.42;;;16.25;;
22026;SDS011;11177;50.966;10.070;2023-02-16T15:03:49;28.48;;;15.77;;
22026;SDS011;11177;50.966;10.070;2023-02-16T15:06:26;29.38;;;16.40;;
22026;SDS011;11177;50.966;10.070;2023-02-16T15:09:19;30.58;;;16.27;;
22026;SDS011;11177;50.966;10.070;2023-02-16T15:12:05;27.52;;;16.27;;
22026;SDS011;11177;50.966;10.070;2023-02-16T15:14:53;30.02;;;17.00;;
22026;SDS011;11177;50.966;10.070;2023-02-16T15:17:29;30.65;;;16.42;;
22026;SDS011;11177;50.966;10.070;2023-02-16T15:20:07;28.25;;;16.40;;
22026;SDS011;11177;50.966;10.070;2023-02-16T15:22:59;31.08;;;16.33;;
22026;SDS011;11177;50.966;10.070;2023-02-16T15:25:29;29.80;;;16.98;;
22026;SDS011;11177;50.966;10.070;2023-02-16T15:28:14;34.17;;;20.45;;
22026;SDS011;11177;50.966;10.070;2023-02-16T15:30:49;33.10;;;18.95;;
22026;SDS011;11177;50.966;10.070;2023-02-16T15:36:11;34.33;;;17.90;;
22026;SDS011;11177;50.966;10.070;2023-02-16T15:38:59;35.90;;;19.65;;
22026;SDS011;11177;50.966;10.070;2023-02-16T15:41:30;28.85;;;16.90;;
22026;SDS011;11177;50.966;10.070;2023-02-16T15:43:58;42.65;;;22.67;;
22026;SDS011;11177;50.966;10.070;2023-02-16T15:46:39;54.28;;;27.33;;
22026;SDS011;11177;50.966;10.070;2023-02-16T15:49:13;36.47;;;19.67;;
22026;SDS011;11177;50.966;10.070;2023-02-16T15:51:50;44.42;;;22.63;;
22026;SDS011;11177;50.966;10.070;2023-02-16T15:54:25;39.13;;;20.35;;
22026;SDS011;11177;50.966;10.070;2023-02-16T15:56:58;44.22;;;23.20;;
22026;SDS011;11177;50.966;10.070;2023-02-16T15:59:42;54.65;;;29.52;;
22026;SDS011;11177;50.966;10.070;2023-02-16T16:02:17;49.70;;;24.50;;
22026;SDS011;11177;50.966;10.070;2023-02-16T16:04:51;40.08;;;20.95;;
22026;SDS011;11177;50.966;10.070;2023-02-16T16:07:30;35.60;;;19.25;;
22026;SDS011;11177;50.966;10.070;2023-02-16T16:09:59;34.75;;;19.05;;
22026;SDS011;11177;50.966;10.070;2023-02-16T16:12:26;33.47;;;18.30;;
22026;SDS011;11177;50.966;10.070;2023-02-16T16:14:54;37.33;;;22.30;;